sensor_id;sensor_type;location;lat;lon;timestamp;pressure;altitude;pressure_sealevel;temperature;humidity
28448;BME280;15675;52.870;-1.416;2022-12-29T00:01:53;98273.16;;;9.55;100.00
28448;BME280;15675;52.870;-1.416;2022-12-29T00:04:18;98273.47;;;9.44;100.00
28448;BME280;15675;52.870;-1.416;2022-12-29T00:06:44;98269.38;;;9.65;100.00
28448;BME280;15675;52.870;-1.416;2022-12-29T00:09:11;98276.41;;;9.33;100.00
28448;BME280;15675;52.870;-1.416;2022-12-29T00:11:38;98268.19;;;9.19;100.00
28448;BME280;15675;52.870;-1.416;2022-12-29T00:14:03;98280.09;;;9.25;100.00
28448;BME280;15675;52.870;-1.416;2022-12-29T00:16:47;98281.31;;;9.43;100.00
28448;BME280;15675;52.870;-1.416;2022-12-29T00:19:13;98284.63;;;9.48;100.00
28448;BME280;15675;52.870;-1.416;2022-12-29T00:21:58;98288.69;;;9.27;100.00
28448;BME280;15675;52.870;-1.416;2022-12-29T00:24:43;98269.50;;;9.34;100.00
28448;BME280;15675;52.870;-1.416;2022-12-29T00:27:28;98281.81;;;9.26;100.00
28448;BME280;15675;52.870;-1.416;2022-12-29T00:30:15;98297.28;;;9.27;100.00
28448;BME280;15675;52.870;-1.416;2022-12-29T00:33:00;98283.66;;;9.22;100.00
28448;BME280;15675;52.870;-1.416;2022-12-29T00:35:52;98276.97;;;9.15;100.00
28448;BME280;15675;52.870;-1.416;2022-12-29T00:38:19;98291.94;;;9.33;100.00
28448;BME280;15675;52.870;-1.416;2022-12-29T00:41:04;98290.97;;;9.36;100.00
28448;BME280;15675;52.870;-1.416;2022-12-29T00:43:48;98298.25;;;9.23;100.00
28448;BME280;15675;52.870;-1.416;2022-12-29T00:46:37;98302.84;;;9.45;100.00
28448;BME280;15675;52.870;-1.416;2022-12-29T00:49:03;98284.00;;;9.10;100.00
28448;BME280;15675;52.870;-1.416;2022-12-29T00:51:48;98297.03;;;9.37;100.00
28448;BME280;15675;52.870;-1.416;2022-12-29T00:54:15;98298.22;;;9.25;100.00
28448;BME280;15675;52.870;-1.416;2022-12-29T00:56:41;98282.16;;;9.13;100.00
28448;BME280;15675;52.870;-1.416;2022-12-29T00:59:09;98298.84;;;9.33;100.00
28448;BME280;15675;52.870;-1.416;2022-12-29T01:01:36;98296.44;;;9.27;100.00
28448;BME280;15675;52.870;-1.416;2022-12-29T01:04:03;98291.91;;;9.35;100.00
28448;BME280;15675;52.870;-1.416;2022-12-29T01:06:28;98273.59;;;9.11;100.00
28448;BME280;15675;52.870;-1.416;2022-12-29T01:08:54;98286.84;;;9.30;100.00
28448;BME280;15675;52.870;-1.416;2022-12-29T01:11:39;98281.84;;;9.24;100.00
28448;BME280;15675;52.870;-1.416;2022-12-29T01:14:05;98280.03;;;9.28;100.00
28448;BME280;15675;52.870;-1.416;2022-12-29T01:16:32;98291.47;;;9.19;100.00
28448;BME280;15675;52.870;-1.416;2022-12-29T01:18:58;98287.97;;;9.22;100.00
28448;BME280;15675;52.870;-1.416;2022-12-29T01:21:23;98283.66;;;9.22;100.00
28448;BME280;15675;52.870;-1.416;2022-12-29T01:23:49;98278.97;;;9.05;100.00
28448;BME280;15675;52.870;-1.416;2022-12-29T01:26:16;98273.59;;;9.11;100.00
28448;BME280;15675;52.870;-1.416;2022-12-29T01:28:42;98276.22;;;9.10;100.00
28448;BME280;15675;52.870;-1.416;2022-12-29T01:31:12;98269.22;;;9.13;100.00
28448;BME280;15675;52.870;-1.416;2022-12-29T01:33:39;98269.97;;;9.17;100.00
28448;BME280;15675;52.870;-1.416;2022-12-29T01:36:08;98265.59;;;9.19;100.00
28448;BME280;15675;52.870;-1.416;2022-12-29T01:38:35;98244.16;;;9.15;100.00
28448;BME280;15675;52.870;-1.416;2022-12-29T01:41:02;98246.78;;;9.14;100.00
28448;BME280;15675;52.870;-1.416;2022-12-29T01:48:54;98230.94;;;8.95;100.00
28448;BME280;15675;52.870;-1.416;2022-12-29T01:51:23;98256.31;;;9.12;100.00
28448;BME280;15675;52.870;-1.416;2022-12-29T01:53:50;98248.06;;;8.99;100.00
28448;BME280;15675;52.870;-1.416;2022-12-29T01:56:19;98233.53;;;8.95;100.00
28448;BME280;15675;52.870;-1.416;2022-12-29T01:58:48;98251.53;;;9.00;100.00
28448;BME280;15675;52.870;-1.416;2022-12-29T02:01:17;98244.09;;;9.17;100.00
28448;BME280;15675;52.870;-1.416;2022-12-29T02:03:44;98243.75;;;9.29;100.00
28448;BME280;15675;52.870;-1.416;2022-12-29T02:06:22;98239.56;;;8.95;100.00
28448;BME280;15675;52.870;-1.416;2022-12-29T02:08:50;98234.19;;;9.02;100.00
28448;BME280;15675;52.870;-1.416;2022-12-29T02:11:18;98235.38;;;8.91;100.00
28448;BME280;15675;52.870;-1.416;2022-12-29T02:13:44;98234.09;;;8.75;100.00
28448;BME280;15675;52.870;-1.416;2022-12-29T02:24:59;98231.16;;;8.87;100.00
28448;BME280;15675;52.870;-1.416;2022-12-29T02:27:46;98240.84;;;8.80;100.00
28448;BME280;15675;52.870;-1.416;2022-12-29T02:30:43;98237.22;;;8.86;100.00
28448;BME280;15675;52.870;-1.416;2022-12-29T02:38:51;98232.28;;;8.78;100.00
28448;BME280;15675;52.870;-1.416;2022-12-29T02:44:14;98233.63;;;8.92;100.00
28448;BME280;15675;52.870;-1.416;2022-12-29T02:46:47;98253.19;;;9.01;100.00
28448;BME280;15675;52.870;-1.416;2022-12-29T02:49:34;98251.69;;;8.93;100.00
28448;BME280;15675;52.870;-1.416;2022-12-29T02:52:03;98260.50;;;8.86;100.00
28448;BME280;15675;52.870;-1.416;2022-12-29T02:54:30;98264.44;;;8.70;100.00
28448;BME280;15675;52.870;-1.416;2022-12-29T02:57:33;98272.94;;;8.73;100.00
28448;BME280;15675;52.870;-1.416;2022-12-29T03:00:07;98274.25;;;8.57;100.00
28448;BME280;15675;52.870;-1.416;2022-12-29T03:02:56;98277.72;;;8.56;100.00
28448;BME280;15675;52.870;-1.416;2022-12-29T03:06:12;98285.88;;;8.39;100.00
28448;BME280;15675;52.870;-1.416;2022-12-29T03:08:54;98287.59;;;8.40;100.00
28448;BME280;15675;52.870;-1.416;2022-12-29T03:11:28;98300.22;;;8.52;100.00
28448;BME280;15675;52.870;-1.416;2022-12-29T03:17:10;98304.59;;;8.50;100.00
28448;BME280;15675;52.870;-1.416;2022-12-29T03:19:45;98300.75;;;8.30;100.00
28448;BME280;15675;52.870;-1.416;2022-12-29T03:22:19;98314.13;;;8.48;100.00
28448;BME280;15675;52.870;-1.416;2022-12-29T03:25:17;98326.38;;;8.40;100.00
28448;BME280;15675;52.870;-1.416;2022-12-29T03:27:49;98329.25;;;8.27;100.00
28448;BME280;15675;52.870;-1.416;2022-12-29T03:30:16;98362.69;;;8.34;100.00
28448;BME280;15675;52.870;-1.416;2022-12-29T03:32:46;98398.81;;;7.99;100.00
28448;BME280;15675;52.870;-1.416;2022-12-29T03:35:15;98414.19;;;7.66;100.00
28448;BME280;15675;52.870;-1.416;2022-12-29T03:37:49;98411.59;;;7.24;100.00
28448;BME280;15675;52.870;-1.416;2022-12-29T03:40:16;98403.19;;;7.14;100.00
28448;BME280;15675;52.870;-1.416;2022-12-29T03:42:43;98418.84;;;7.03;100.00
28448;BME280;15675;52.870;-1.416;2022-12-29T03:45:10;98428.44;;;6.95;100.00
28448;BME280;15675;52.870;-1.416;2022-12-29T03:47:36;98428.41;;;6.97;100.00
28448;BME280;15675;52.870;-1.416;2022-12-29T03:50:01;98428.97;;;7.14;100.00
28448;BME280;15675;52.870;-1.416;2022-12-29T03:52:27;98435.06;;;7.10;100.00
28448;BME280;15675;52.870;-1.416;2022-12-29T03:54:53;98446.19;;;7.12;100.00
28448;BME280;15675;52.870;-1.416;2022-12-29T03:57:18;98441.97;;;7.08;100.00
28448;BME280;15675;52.870;-1.416;2022-12-29T03:59:44;98454.09;;;7.04;100.00
28448;BME280;15675;52.870;-1.416;2022-12-29T04:02:09;98455.03;;;6.99;100.00
28448;BME280;15675;52.870;-1.416;2022-12-29T04:04:35;98458.66;;;6.88;100.00
28448;BME280;15675;52.870;-1.416;2022-12-29T04:07:01;98462.13;;;6.87;100.00
28448;BME280;15675;52.870;-1.416;2022-12-29T04:09:26;98468.31;;;6.77;100.00
28448;BME280;15675;52.870;-1.416;2022-12-29T04:11:52;98473.16;;;6.96;100.00
28448;BME280;15675;52.870;-1.416;2022-12-29T04:14:17;98474.91;;;6.94;100.00
28448;BME280;15675;52.870;-1.416;2022-12-29T04:16:43;98486.56;;;6.65;100.00
28448;BME280;15675;52.870;-1.416;2022-12-29T04:19:08;98483.97;;;6.65;100.00
28448;BME280;15675;52.870;-1.416;2022-12-29T04:21:34;98494.03;;;6.80;100.00
28448;BME280;15675;52.870;-1.416;2022-12-29T04:24:00;98502.63;;;6.81;100.00
28448;BME280;15675;52.870;-1.416;2022-12-29T04:26:25;98496.59;;;6.82;100.00
28448;BME280;15675;52.870;-1.416;2022-12-29T04:28:51;98512.09;;;6.80;100.00
28448;BME280;15675;52.870;-1.416;2022-12-29T04:31:17;98513.69;;;6.87;100.00
28448;BME280;15675;52.870;-1.416;2022-12-29T04:33:42;98526.69;;;6.83;100.00
28448;BME280;15675;52.870;-1.416;2022-12-29T04:36:08;98529.31;;;6.77;100.00
28448;BME280;15675;52.870;-1.416;2022-12-29T04:38:34;98537.66;;;6.93;100.00
28448;BME280;15675;52.870;-1.416;2022-12-29T04:41:00;98530.03;;;6.86;100.00
28448;BME280;15675;52.870;-1.416;2022-12-29T04:43:27;98548.97;;;6.87;100.00
28448;BME280;15675;52.870;-1.416;2022-12-29T04:45:52;98552.53;;;6.77;100.00
28448;BME280;15675;52.870;-1.416;2022-12-29T04:48:18;98562.94;;;6.72;100.00
28448;BME280;15675;52.870;-1.416;2022-12-29T04:50:44;98563.69;;;6.79;100.00
28448;BME280;15675;52.870;-1.416;2022-12-29T04:53:09;98562.81;;;6.80;100.00
28448;BME280;15675;52.870;-1.416;2022-12-29T04:55:35;98572.16;;;6.85;100.00
28448;BME280;15675;52.870;-1.416;2022-12-29T04:58:00;98576.47;;;6.86;100.00
28448;BME280;15675;52.870;-1.416;2022-12-29T05:00:26;98583.19;;;6.97;100.00
28448;BME280;15675;52.870;-1.416;2022-12-29T05:02:52;98577.38;;;6.82;100.00
28448;BME280;15675;52.870;-1.416;2022-12-29T05:05:17;98587.53;;;6.93;100.00
28448;BME280;15675;52.870;-1.416;2022-12-29T05:07:43;98599.56;;;6.94;100.00
28448;BME280;15675;52.870;-1.416;2022-12-29T05:10:09;98608.00;;;7.04;100.00
28448;BME280;15675;52.870;-1.416;2022-12-29T05:12:36;98612.22;;;7.09;100.00
28448;BME280;15675;52.870;-1.416;2022-12-29T05:15:04;98625.06;;;7.14;100.00
28448;BME280;15675;52.870;-1.416;2022-12-29T05:17:30;98630.97;;;7.21;100.00
28448;BME280;15675;52.870;-1.416;2022-12-29T05:19:56;98640.34;;;7.26;100.00
28448;BME280;15675;52.870;-1.416;2022-12-29T05:22:21;98642.72;;;7.39;100.00
28448;BME280;15675;52.870;-1.416;2022-12-29T05:24:47;98644.63;;;7.28;100.00
28448;BME280;15675;52.870;-1.416;2022-12-29T05:27:13;98640.34;;;7.26;100.00
28448;BME280;15675;52.870;-1.416;2022-12-29T05:29:39;98652.56;;;7.15;100.00
28448;BME280;15675;52.870;-1.416;2022-12-29T05:32:04;98664.44;;;7.27;100.00
28448;BME280;15675;52.870;-1.416;2022-12-29T05:34:30;98651.63;;;7.19;100.00
28448;BME280;15675;52.870;-1.416;2022-12-29T05:36:55;98669.66;;;7.21;100.00
28448;BME280;15675;52.870;-1.416;2022-12-29T05:39:21;98667.97;;;7.21;100.00
28448;BME280;15675;52.870;-1.416;2022-12-29T05:41:46;98675.69;;;7.21;100.00
28448;BME280;15675;52.870;-1.416;2022-12-29T05:44:12;98686.81;;;7.25;100.00
28448;BME280;15675;52.870;-1.416;2022-12-29T05:46:38;98690.94;;;7.35;100.00
28448;BME280;15675;52.870;-1.416;2022-12-29T05:49:04;98701.97;;;7.48;100.00
28448;BME280;15675;52.870;-1.416;2022-12-29T05:51:30;98694.16;;;7.51;100.00
28448;BME280;15675;52.870;-1.416;2022-12-29T05:53:56;98698.84;;;7.26;100.00
28448;BME280;15675;52.870;-1.416;2022-12-29T05:56:21;98696.41;;;7.15;100.00
28448;BME280;15675;52.870;-1.416;2022-12-29T05:58:47;98703.19;;;7.22;100.00
28448;BME280;15675;52.870;-1.416;2022-12-29T06:01:12;98707.41;;;7.30;100.00
28448;BME280;15675;52.870;-1.416;2022-12-29T06:03:38;98721.16;;;7.30;100.00
28448;BME280;15675;52.870;-1.416;2022-12-29T06:06:04;98720.34;;;7.26;100.00
28448;BME280;15675;52.870;-1.416;2022-12-29T06:08:29;98718.53;;;7.33;100.00
28448;BME280;15675;52.870;-1.416;2022-12-29T06:10:55;98727.94;;;7.37;100.00
28448;BME280;15675;52.870;-1.416;2022-12-29T06:13:20;98728.72;;;7.44;100.00
28448;BME280;15675;52.870;-1.416;2022-12-29T06:15:48;98718.44;;;7.39;100.00
28448;BME280;15675;52.870;-1.416;2022-12-29T06:18:14;98726.19;;;7.38;100.00
28448;BME280;15675;52.870;-1.416;2022-12-29T06:20:40;98728.91;;;7.30;100.00
28448;BME280;15675;52.870;-1.416;2022-12-29T06:23:05;98745.06;;;7.43;100.00
28448;BME280;15675;52.870;-1.416;2022-12-29T06:25:31;98736.50;;;7.39;100.00
28448;BME280;15675;52.870;-1.416;2022-12-29T06:27:57;98750.31;;;7.38;100.00
28448;BME280;15675;52.870;-1.416;2022-12-29T06:30:23;98748.69;;;7.31;100.00
28448;BME280;15675;52.870;-1.416;2022-12-29T06:32:49;98759.00;;;7.31;100.00
28448;BME280;15675;52.870;-1.416;2022-12-29T06:35:15;98754.53;;;7.41;100.00
28448;BME280;15675;52.870;-1.416;2022-12-29T06:37:40;98772.59;;;7.44;100.00
28448;BME280;15675;52.870;-1.416;2022-12-29T06:40:06;98775.16;;;7.44;100.00
28448;BME280;15675;52.870;-1.416;2022-12-29T06:42:32;98772.66;;;7.38;100.00
28448;BME280;15675;52.870;-1.416;2022-12-29T06:44:57;98765.84;;;7.34;100.00
28448;BME280;15675;52.870;-1.416;2022-12-29T06:47:24;98782.94;;;7.42;100.00
28448;BME280;15675;52.870;-1.416;2022-12-29T06:49:50;98789.94;;;7.34;100.00
28448;BME280;15675;52.870;-1.416;2022-12-29T06:52:15;98782.78;;;7.52;100.00
28448;BME280;15675;52.870;-1.416;2022-12-29T06:54:41;98790.66;;;7.44;100.00
28448;BME280;15675;52.870;-1.416;2022-12-29T06:57:06;98802.66;;;7.45;100.00
28448;BME280;15675;52.870;-1.416;2022-12-29T06:59:32;98799.31;;;7.40;100.00
28448;BME280;15675;52.870;-1.416;2022-12-29T07:01:57;98818.31;;;7.36;100.00
28448;BME280;15675;52.870;-1.416;2022-12-29T07:04:23;98828.31;;;7.59;100.00
28448;BME280;15675;52.870;-1.416;2022-12-29T07:06:49;98835.22;;;7.58;100.00
28448;BME280;15675;52.870;-1.416;2022-12-29T07:09:14;98819.81;;;7.49;100.00
28448;BME280;15675;52.870;-1.416;2022-12-29T07:11:40;98822.38;;;7.51;100.00
28448;BME280;15675;52.870;-1.416;2022-12-29T07:14:05;98808.44;;;7.64;100.00
28448;BME280;15675;52.870;-1.416;2022-12-29T07:16:31;98822.22;;;7.63;100.00
28448;BME280;15675;52.870;-1.416;2022-12-29T07:18:57;98826.53;;;7.63;100.00
28448;BME280;15675;52.870;-1.416;2022-12-29T07:21:24;98830.16;;;7.49;100.00
28448;BME280;15675;52.870;-1.416;2022-12-29T07:23:50;98836.69;;;7.75;100.00
28448;BME280;15675;52.870;-1.416;2022-12-29T07:26:16;98835.19;;;7.60;100.00
28448;BME280;15675;52.870;-1.416;2022-12-29T07:28:44;98838.72;;;7.54;100.00
28448;BME280;15675;52.870;-1.416;2022-12-29T07:31:15;98858.53;;;7.51;100.00
28448;BME280;15675;52.870;-1.416;2022-12-29T07:33:41;98852.38;;;7.63;100.00
28448;BME280;15675;52.870;-1.416;2022-12-29T07:36:09;98844.50;;;7.70;100.00
28448;BME280;15675;52.870;-1.416;2022-12-29T07:38:34;98853.13;;;7.68;100.00
28448;BME280;15675;52.870;-1.416;2022-12-29T07:41:00;98861.47;;;7.88;100.00
28448;BME280;15675;52.870;-1.416;2022-12-29T07:43:25;98856.44;;;7.77;100.00
28448;BME280;15675;52.870;-1.416;2022-12-29T07:45:51;98871.84;;;7.84;100.00
28448;BME280;15675;52.870;-1.416;2022-12-29T07:48:17;98865.94;;;7.77;100.00
28448;BME280;15675;52.870;-1.416;2022-12-29T07:50:42;98874.91;;;7.50;100.00
28448;BME280;15675;52.870;-1.416;2022-12-29T07:53:08;98879.31;;;7.43;100.00
28448;BME280;15675;52.870;-1.416;2022-12-29T07:55:33;98882.56;;;7.56;100.00
28448;BME280;15675;52.870;-1.416;2022-12-29T07:57:59;98887.97;;;7.37;100.00
28448;BME280;15675;52.870;-1.416;2022-12-29T08:00:25;98901.59;;;7.49;100.00
28448;BME280;15675;52.870;-1.416;2022-12-29T08:02:51;98893.19;;;7.34;100.00
28448;BME280;15675;52.870;-1.416;2022-12-29T08:05:18;98898.09;;;7.53;100.00
28448;BME280;15675;52.870;-1.416;2022-12-29T08:07:44;98899.94;;;7.45;100.00
28448;BME280;15675;52.870;-1.416;2022-12-29T08:10:10;98896.41;;;7.50;100.00
28448;BME280;15675;52.870;-1.416;2022-12-29T08:12:37;98915.50;;;7.35;100.00
28448;BME280;15675;52.870;-1.416;2022-12-29T08:15:03;98906.94;;;7.35;100.00
28448;BME280;15675;52.870;-1.416;2022-12-29T08:17:29;98916.25;;;7.47;100.00
28448;BME280;15675;52.870;-1.416;2022-12-29T08:19:55;98930.97;;;7.40;100.00
28448;BME280;15675;52.870;-1.416;2022-12-29T08:22:20;98930.09;;;7.42;100.00
28448;BME280;15675;52.870;-1.416;2022-12-29T08:24:46;98930.97;;;7.40;100.00
28448;BME280;15675;52.870;-1.416;2022-12-29T08:27:11;98926.59;;;7.45;100.00
28448;BME280;15675;52.870;-1.416;2022-12-29T08:29:37;98944.47;;;7.60;100.00
28448;BME280;15675;52.870;-1.416;2022-12-29T08:32:02;98955.50;;;7.75;100.00
28448;BME280;15675;52.870;-1.416;2022-12-29T08:34:30;98964.13;;;7.75;100.00
28448;BME280;15675;52.870;-1.416;2022-12-29T08:36:56;98974.28;;;7.86;100.00
28448;BME280;15675;52.870;-1.416;2022-12-29T08:39:21;98972.75;;;7.73;100.00
28448;BME280;15675;52.870;-1.416;2022-12-29T08:41:47;98982.22;;;7.74;100.00
28448;BME280;15675;52.870;-1.416;2022-12-29T08:44:13;98982.19;;;7.72;100.00
28448;BME280;15675;52.870;-1.416;2022-12-29T08:46:38;98988.22;;;7.74;100.00
28448;BME280;15675;52.870;-1.416;2022-12-29T08:49:04;98974.66;;;7.57;100.00
28448;BME280;15675;52.870;-1.416;2022-12-29T08:51:29;98983.16;;;7.65;100.00
28448;BME280;15675;52.870;-1.416;2022-12-29T08:53:55;98984.78;;;7.74;100.00
28448;BME280;15675;52.870;-1.416;2022-12-29T08:56:20;98994.34;;;7.66;100.00
28448;BME280;15675;52.870;-1.416;2022-12-29T08:58:46;98998.69;;;7.62;100.00
28448;BME280;15675;52.870;-1.416;2022-12-29T09:01:11;99009.78;;;7.72;100.00
28448;BME280;15675;52.870;-1.416;2022-12-29T09:03:37;99014.94;;;7.72;100.00
28448;BME280;15675;52.870;-1.416;2022-12-29T09:06:03;99012.47;;;7.59;100.00
28448;BME280;15675;52.870;-1.416;2022-12-29T09:08:28;99015.81;;;7.71;100.00
28448;BME280;15675;52.870;-1.416;2022-12-29T09:10:54;99022.78;;;7.64;100.00
28448;BME280;15675;52.870;-1.416;2022-12-29T09:13:19;99010.06;;;7.47;100.00
28448;BME280;15675;52.870;-1.416;2022-12-29T09:15:45;99028.78;;;7.66;100.00
28448;BME280;15675;52.870;-1.416;2022-12-29T09:18:11;99022.06;;;7.51;100.00
28448;BME280;15675;52.870;-1.416;2022-12-29T09:20:37;99037.34;;;7.71;100.00
28448;BME280;15675;52.870;-1.416;2022-12-29T09:23:03;99035.75;;;7.58;100.00
28448;BME280;15675;52.870;-1.416;2022-12-29T09:25:31;99032.28;;;7.60;100.00
28448;BME280;15675;52.870;-1.416;2022-12-29T09:27:56;99047.53;;;7.85;100.00
28448;BME280;15675;52.870;-1.416;2022-12-29T09:30:22;99047.41;;;7.93;100.00
28448;BME280;15675;52.870;-1.416;2022-12-29T09:32:48;99047.41;;;7.93;100.00
28448;BME280;15675;52.870;-1.416;2022-12-29T09:35:14;99062.06;;;7.92;100.00
28448;BME280;15675;52.870;-1.416;2022-12-29T09:37:40;99059.63;;;7.78;100.00
28448;BME280;15675;52.870;-1.416;2022-12-29T09:40:07;99051.91;;;7.77;100.00
28448;BME280;15675;52.870;-1.416;2022-12-29T09:45:41;99046.91;;;7.62;100.00
28448;BME280;15675;52.870;-1.416;2022-12-29T09:48:16;99069.09;;;7.80;100.00
28448;BME280;15675;52.870;-1.416;2022-12-29T09:50:47;99069.97;;;7.78;100.00
28448;BME280;15675;52.870;-1.416;2022-12-29T09:53:20;99069.75;;;7.99;100.00
28448;BME280;15675;52.870;-1.416;2022-12-29T09:55:49;99079.38;;;7.84;100.00
28448;BME280;15675;52.870;-1.416;2022-12-29T10:01:16;99091.53;;;7.76;100.00
28448;BME280;15675;52.870;-1.416;2022-12-29T10:03:48;99086.16;;;7.94;100.00
28448;BME280;15675;52.870;-1.416;2022-12-29T10:06:23;99081.16;;;7.79;100.00
28448;BME280;15675;52.870;-1.416;2022-12-29T10:09:13;99092.34;;;7.80;100.00
28448;BME280;15675;52.870;-1.416;2022-12-29T10:24:50;99114.56;;;7.94;100.00
28448;BME280;15675;52.870;-1.416;2022-12-29T10:27:18;99115.47;;;7.90;100.00
28448;BME280;15675;52.870;-1.416;2022-12-29T10:29:58;99111.09;;;7.99;100.00
28448;BME280;15675;52.870;-1.416;2022-12-29T10:32:36;99115.31;;;8.04;100.00
28448;BME280;15675;52.870;-1.416;2022-12-29T10:35:17;99111.94;;;7.98;100.00
28448;BME280;15675;52.870;-1.416;2022-12-29T10:38:05;99118.72;;;8.06;100.00
28448;BME280;15675;52.870;-1.416;2022-12-29T10:40:41;99106.66;;;8.10;100.00
28448;BME280;15675;52.870;-1.416;2022-12-29T10:43:30;99122.97;;;8.12;100.00
28448;BME280;15675;52.870;-1.416;2022-12-29T10:45:58;99122.84;;;8.24;100.00
28448;BME280;15675;52.870;-1.416;2022-12-29T10:48:29;99120.94;;;8.39;100.00
28448;BME280;15675;52.870;-1.416;2022-12-29T10:50:57;99130.47;;;8.37;100.00
28448;BME280;15675;52.870;-1.416;2022-12-29T10:53:27;99110.13;;;8.06;100.00
28448;BME280;15675;52.870;-1.416;2022-12-29T10:55:58;99110.13;;;8.06;100.00
28448;BME280;15675;52.870;-1.416;2022-12-29T10:58:25;99134.22;;;8.09;100.00
28448;BME280;15675;52.870;-1.416;2022-12-29T11:00:53;99121.19;;;8.19;100.00
28448;BME280;15675;52.870;-1.416;2022-12-29T11:03:41;99128.03;;;8.23;100.00
28448;BME280;15675;52.870;-1.416;2022-12-29T11:06:17;99124.09;;;7.92;100.00
28448;BME280;15675;52.870;-1.416;2022-12-29T11:09:14;99128.97;;;8.17;100.00
28448;BME280;15675;52.870;-1.416;2022-12-29T11:11:41;99138.34;;;8.26;100.00
28448;BME280;15675;52.870;-1.416;2022-12-29T11:14:12;99148.59;;;8.32;100.00
28448;BME280;15675;52.870;-1.416;2022-12-29T11:16:39;99140.84;;;8.30;100.00
28448;BME280;15675;52.870;-1.416;2022-12-29T11:19:19;99144.50;;;8.14;100.00
28448;BME280;15675;52.870;-1.416;2022-12-29T11:21:45;99142.00;;;8.05;100.00
28448;BME280;15675;52.870;-1.416;2022-12-29T11:24:23;99135.88;;;8.15;100.00
28448;BME280;15675;52.870;-1.416;2022-12-29T11:26:52;99140.38;;;7.98;100.00
28448;BME280;15675;52.870;-1.416;2022-12-29T11:29:37;99129.06;;;8.09;100.00
28448;BME280;15675;52.870;-1.416;2022-12-29T11:34:36;99137.59;;;8.15;100.00
28448;BME280;15675;52.870;-1.416;2022-12-29T11:37:13;99133.47;;;7.97;100.00
28448;BME280;15675;52.870;-1.416;2022-12-29T11:39:46;99124.78;;;8.07;100.00
28448;BME280;15675;52.870;-1.416;2022-12-29T11:42:23;99145.38;;;8.13;100.00
28448;BME280;15675;52.870;-1.416;2022-12-29T11:44:54;99154.00;;;8.10;100.00
28448;BME280;15675;52.870;-1.416;2022-12-29T11:47:23;99153.91;;;8.21;100.00
28448;BME280;15675;52.870;-1.416;2022-12-29T11:49:54;99158.13;;;8.28;100.00
28448;BME280;15675;52.870;-1.416;2022-12-29T11:52:25;99128.91;;;8.22;100.00
28448;BME280;15675;52.870;-1.416;2022-12-29T11:54:51;99143.53;;;8.24;100.00
28448;BME280;15675;52.870;-1.416;2022-12-29T11:57:20;99148.53;;;8.38;100.00
28448;BME280;15675;52.870;-1.416;2022-12-29T12:04:56;99133.09;;;8.30;100.00
28448;BME280;15675;52.870;-1.416;2022-12-29T12:07:45;99113.59;;;8.03;100.00
28448;BME280;15675;52.870;-1.416;2022-12-29T12:10:33;99136.75;;;8.14;100.00
28448;BME280;15675;52.870;-1.416;2022-12-29T12:16:00;99149.66;;;8.16;100.00
28448;BME280;15675;52.870;-1.416;2022-12-29T12:21:14;99162.53;;;8.19;100.00
28448;BME280;15675;52.870;-1.416;2022-12-29T12:26:17;99166.03;;;8.15;100.00
28448;BME280;15675;52.870;-1.416;2022-12-29T12:29:01;99169.53;;;8.09;100.00
28448;BME280;15675;52.870;-1.416;2022-12-29T12:31:56;99162.66;;;8.11;100.00
28448;BME280;15675;52.870;-1.416;2022-12-29T12:43:08;99163.50;;;8.10;100.00
28448;BME280;15675;52.870;-1.416;2022-12-29T12:53:41;99167.69;;;8.20;100.00
28448;BME280;15675;52.870;-1.416;2022-12-29T12:56:27;99178.88;;;8.22;100.00
28448;BME280;15675;52.870;-1.416;2022-12-29T13:02:06;99171.25;;;8.10;100.00
28448;BME280;15675;52.870;-1.416;2022-12-29T13:10:42;99162.28;;;8.42;100.00
28448;BME280;15675;52.870;-1.416;2022-12-29T13:13:37;99177.88;;;8.36;100.00
28448;BME280;15675;52.870;-1.416;2022-12-29T13:25:21;99177.47;;;8.71;96.61
28448;BME280;15675;52.870;-1.416;2022-12-29T13:33:38;99179.66;;;8.29;96.35
28448;BME280;15675;52.870;-1.416;2022-12-29T13:36:40;99175.19;;;8.48;96.62
28448;BME280;15675;52.870;-1.416;2022-12-29T13:39:17;99167.47;;;8.40;95.36
28448;BME280;15675;52.870;-1.416;2022-12-29T13:41:51;99205.25;;;8.57;95.00
28448;BME280;15675;52.870;-1.416;2022-12-29T13:44:21;99206.00;;;8.65;94.31
28448;BME280;15675;52.870;-1.416;2022-12-29T13:46:48;99213.81;;;8.60;93.66
28448;BME280;15675;52.870;-1.416;2022-12-29T13:49:18;99215.97;;;8.93;92.65
28448;BME280;15675;52.870;-1.416;2022-12-29T13:51:49;99222.81;;;8.98;92.91
28448;BME280;15675;52.870;-1.416;2022-12-29T13:57:11;99211.75;;;8.87;90.21
28448;BME280;15675;52.870;-1.416;2022-12-29T13:59:57;99206.50;;;8.92;90.16
28448;BME280;15675;52.870;-1.416;2022-12-29T14:02:46;99223.91;;;8.79;89.57
28448;BME280;15675;52.870;-1.416;2022-12-29T14:07:48;99207.03;;;8.50;89.48
28448;BME280;15675;52.870;-1.416;2022-12-29T14:10:33;99219.78;;;8.66;89.43
28448;BME280;15675;52.870;-1.416;2022-12-29T14:15:38;99232.75;;;8.64;88.34
28448;BME280;15675;52.870;-1.416;2022-12-29T14:23:40;99231.16;;;8.51;89.80
28448;BME280;15675;52.870;-1.416;2022-12-29T14:28:32;99225.34;;;8.28;87.89
28448;BME280;15675;52.870;-1.416;2022-12-29T14:31:03;99257.09;;;8.44;88.21
28448;BME280;15675;52.870;-1.416;2022-12-29T14:33:31;99256.28;;;8.36;89.14
28448;BME280;15675;52.870;-1.416;2022-12-29T14:38:46;99254.59;;;8.30;90.64
28448;BME280;15675;52.870;-1.416;2022-12-29T14:41:40;99272.59;;;8.41;90.38
28448;BME280;15675;52.870;-1.416;2022-12-29T14:44:11;99282.34;;;8.15;91.83
28448;BME280;15675;52.870;-1.416;2022-12-29T14:46:45;99301.28;;;8.15;92.74
28448;BME280;15675;52.870;-1.416;2022-12-29T14:49:32;99289.28;;;8.08;92.65
28448;BME280;15675;52.870;-1.416;2022-12-29T14:52:15;99270.41;;;8.03;93.75
28448;BME280;15675;52.870;-1.416;2022-12-29T14:57:32;99304.78;;;8.08;94.50
28448;BME280;15675;52.870;-1.416;2022-12-29T15:00:14;99307.31;;;8.16;94.59
28448;BME280;15675;52.870;-1.416;2022-12-29T15:02:44;99312.59;;;8.03;95.04
28448;BME280;15675;52.870;-1.416;2022-12-29T15:05:25;99321.81;;;8.30;95.78
28448;BME280;15675;52.870;-1.416;2022-12-29T15:07:53;99315.81;;;8.30;95.31
28448;BME280;15675;52.870;-1.416;2022-12-29T15:10:20;99323.81;;;8.04;96.32